createdAt,value
2023-01-21T00:00:38.128Z,193.90
2023-01-21T00:03:08.196Z,186.77
2023-01-21T00:05:38.042Z,157.25
2023-01-21T00:08:07.809Z,132.18
2023-01-21T00:10:37.322Z,140.85
2023-01-21T00:13:07.026Z,128.35
2023-01-21T00:15:38.139Z,117.18
2023-01-21T00:18:08.110Z,125.00
2023-01-21T00:20:37.695Z,118.80
2023-01-21T00:23:07.707Z,126.53
2023-01-21T00:25:37.221Z,126.55
2023-01-21T00:28:06.997Z,212.75
2023-01-21T00:30:37.868Z,233.52
2023-01-21T00:33:07.433Z,230.93
2023-01-21T00:35:37.272Z,214.40
2023-01-21T00:38:06.602Z,183.93
2023-01-21T00:40:36.716Z,186.25
2023-01-21T00:43:06.239Z,219.52
2023-01-21T00:45:35.641Z,252.30
2023-01-21T00:48:05.450Z,360.58
2023-01-21T00:50:35.104Z,496.60
2023-01-21T00:53:04.661Z,475.67
2023-01-21T00:55:34.054Z,481.17
2023-01-21T00:58:03.849Z,453.85
2023-01-21T01:00:33.875Z,453.00
2023-01-21T01:03:03.621Z,453.55
2023-01-21T01:05:34.721Z,453.58
2023-01-21T01:08:05.376Z,470.88
2023-01-21T01:10:40.217Z,423.50
2023-01-21T01:13:10.396Z,407.92
2023-01-21T01:15:41.341Z,354.20
2023-01-21T01:18:11.805Z,226.20
2023-01-21T01:20:48.800Z,175.93
2023-01-21T01:23:19.184Z,144.07
2023-01-21T01:26:09.328Z,132.10
2023-01-21T01:28:39.915Z,124.68
2023-01-21T01:31:13.910Z,125.43
2023-01-21T01:33:45.236Z,139.63
2023-01-21T01:36:21.132Z,137.55
2023-01-21T01:38:51.961Z,147.80
2023-01-21T01:41:30.244Z,133.70
2023-01-21T01:44:27.421Z,137.70
2023-01-21T01:47:01.616Z,159.15
2023-01-21T01:49:31.948Z,151.52
2023-01-21T01:52:06.543Z,167.27
2023-01-21T01:54:44.126Z,168.15
2023-01-21T01:57:17.660Z,166.00
2023-01-21T01:59:48.984Z,165.07
2023-01-21T02:02:21.932Z,175.95
2023-01-21T02:04:58.721Z,209.05
2023-01-21T02:07:34.571Z,217.23
2023-01-21T02:10:05.071Z,225.23
2023-01-21T02:12:38.203Z,219.75
2023-01-21T02:15:09.476Z,214.32
2023-01-21T02:21:13.016Z,223.50
2023-01-21T02:24:10.876Z,255.57
2023-01-21T02:26:59.834Z,281.05
2023-01-21T02:29:56.940Z,268.52
2023-01-21T02:33:11.519Z,261.50
2023-01-21T02:35:54.022Z,268.50
2023-01-21T02:38:31.015Z,257.73
2023-01-21T02:41:09.027Z,273.25
2023-01-21T02:44:06.095Z,274.63
2023-01-21T02:47:02.662Z,276.30
2023-01-21T02:50:29.508Z,288.40
2023-01-21T02:53:05.495Z,270.63
2023-01-21T02:55:38.885Z,288.92
2023-01-21T02:58:16.476Z,298.20
2023-01-21T03:01:07.612Z,291.40
2023-01-21T03:03:50.476Z,268.00
2023-01-21T03:06:31.387Z,289.50
2023-01-21T03:09:22.712Z,303.52
2023-01-21T03:12:07.435Z,279.45
2023-01-21T03:15:10.897Z,276.45
2023-01-21T03:17:56.091Z,276.33
2023-01-21T03:20:35.497Z,281.95
2023-01-21T03:23:12.013Z,299.73
2023-01-21T03:25:43.631Z,291.83
2023-01-21T03:28:19.132Z,289.98
2023-01-21T03:30:57.806Z,271.48
2023-01-21T03:33:31.687Z,289.05
2023-01-21T03:36:07.894Z,267.55
2023-01-21T03:38:46.200Z,300.77
2023-01-21T03:41:22.800Z,334.42
2023-01-21T03:43:54.166Z,348.58
2023-01-21T03:46:45.835Z,367.02
2023-01-21T03:49:47.355Z,378.67
2023-01-21T03:52:20.284Z,361.33
2023-01-21T03:54:51.265Z,347.63
2023-01-21T03:57:21.487Z,410.10
2023-01-21T03:59:51.781Z,450.90
2023-01-21T04:02:22.329Z,417.77
2023-01-21T04:04:54.048Z,399.00
2023-01-21T04:07:23.677Z,389.80
2023-01-21T04:09:53.279Z,322.23
2023-01-21T04:12:23.008Z,315.30
2023-01-21T04:14:52.506Z,371.52
2023-01-21T04:17:22.052Z,328.42
2023-01-21T04:19:52.245Z,359.13
2023-01-21T04:22:21.785Z,380.77
2023-01-21T04:24:51.253Z,364.33
2023-01-21T04:27:20.883Z,323.45
2023-01-21T04:29:50.336Z,284.10
2023-01-21T04:32:20.022Z,264.10
2023-01-21T04:34:49.529Z,237.45
2023-01-21T04:37:19.268Z,215.10
2023-01-21T04:39:48.809Z,203.55
2023-01-21T04:42:18.285Z,203.77
2023-01-21T04:44:48.611Z,190.23
2023-01-21T04:47:18.419Z,163.95
2023-01-21T04:49:49.871Z,142.48
2023-01-21T04:52:19.833Z,133.98
2023-01-21T04:54:49.150Z,139.35
2023-01-21T04:57:18.758Z,123.28
2023-01-21T04:59:48.487Z,103.15
2023-01-21T05:02:18.177Z,98.18
2023-01-21T05:04:47.900Z,104.47
2023-01-21T05:07:18.290Z,102.28
2023-01-21T05:09:49.352Z,82.00
2023-01-21T05:12:18.835Z,70.35
2023-01-21T05:14:48.415Z,73.32
2023-01-21T05:17:17.867Z,62.25
2023-01-21T05:19:47.667Z,54.65
2023-01-21T05:22:17.251Z,47.65
2023-01-21T05:24:49.823Z,53.22
2023-01-21T05:27:21.182Z,53.80
2023-01-21T05:29:50.859Z,50.78
2023-01-21T05:32:21.300Z,42.40
2023-01-21T05:34:50.983Z,45.13
2023-01-21T05:37:20.748Z,45.75
2023-01-21T05:39:50.328Z,38.33
2023-01-21T05:42:19.808Z,55.80
2023-01-21T05:44:49.413Z,44.13
2023-01-21T05:47:19.171Z,50.92
2023-01-21T05:49:48.940Z,59.63
2023-01-21T05:52:18.545Z,49.28
2023-01-21T05:55:01.057Z,51.10
2023-01-21T05:57:32.148Z,37.13
2023-01-21T06:00:01.812Z,48.28
2023-01-21T06:02:34.056Z,49.38
2023-01-21T06:05:03.692Z,58.17
2023-01-21T06:07:33.102Z,68.13
2023-01-21T06:10:02.700Z,52.20
2023-01-21T06:12:32.007Z,48.30
2023-01-21T06:15:01.775Z,49.72
2023-01-21T06:17:31.193Z,50.55
2023-01-21T06:20:00.710Z,52.95
2023-01-21T06:22:30.295Z,40.20
2023-01-21T06:25:00.075Z,37.17
2023-01-21T06:27:30.164Z,46.55
2023-01-21T06:29:59.636Z,42.78
2023-01-21T06:32:29.021Z,32.20
2023-01-21T06:34:58.869Z,48.47
2023-01-21T06:37:29.011Z,45.70
2023-01-21T06:39:58.913Z,37.25
2023-01-21T06:42:30.761Z,35.25
2023-01-21T06:45:00.489Z,54.08
2023-01-21T06:47:29.884Z,50.65
2023-01-21T06:49:59.494Z,38.08
2023-01-21T06:52:29.107Z,36.00
2023-01-21T06:54:58.670Z,32.97
2023-01-21T06:57:27.979Z,51.45
2023-01-21T06:59:57.688Z,41.03
2023-01-21T07:02:27.224Z,39.45
2023-01-21T07:04:59.001Z,35.67
2023-01-21T07:07:29.333Z,26.52
2023-01-21T07:09:59.119Z,38.92
2023-01-21T07:12:28.386Z,23.02
2023-01-21T07:14:57.928Z,27.55
2023-01-21T07:17:27.432Z,30.00
2023-01-21T07:19:57.049Z,23.75
2023-01-21T07:22:27.077Z,27.90
2023-01-21T07:24:56.590Z,36.13
2023-01-21T07:27:26.089Z,25.55
2023-01-21T07:29:55.794Z,21.83
2023-01-21T07:32:25.068Z,28.25
2023-01-21T07:34:54.987Z,29.80
2023-01-21T07:37:27.159Z,29.83
2023-01-21T07:39:57.555Z,31.25
2023-01-21T07:42:27.208Z,40.80
2023-01-21T07:44:58.153Z,37.60
2023-01-21T07:47:27.805Z,33.88
2023-01-21T07:49:57.678Z,38.08
2023-01-21T07:52:27.147Z,31.92
2023-01-21T07:54:56.776Z,39.45
2023-01-21T07:57:26.458Z,37.30
2023-01-21T07:59:56.101Z,33.67
2023-01-21T08:02:26.651Z,29.48
2023-01-21T08:04:56.402Z,35.83
2023-01-21T08:07:25.766Z,27.17
2023-01-21T08:09:55.544Z,38.33
2023-01-21T08:12:27.170Z,31.40
2023-01-21T08:14:57.166Z,30.20
2023-01-21T08:17:26.827Z,35.45
2023-01-21T08:19:56.320Z,21.75
2023-01-21T08:22:27.103Z,29.77
2023-01-21T08:24:56.825Z,21.63
2023-01-21T08:27:26.200Z,26.48
2023-01-21T08:29:55.855Z,27.13
2023-01-21T08:32:25.987Z,42.28
2023-01-21T08:34:55.410Z,28.13
2023-01-21T08:37:24.756Z,30.67
2023-01-21T08:39:54.521Z,27.30
2023-01-21T08:42:23.961Z,23.38
2023-01-21T08:44:55.285Z,31.88
2023-01-21T08:47:24.881Z,31.15
2023-01-21T08:49:54.343Z,26.20
2023-01-21T08:52:24.166Z,28.45
2023-01-21T08:54:53.839Z,35.35
2023-01-21T08:57:23.375Z,26.13
2023-01-21T08:59:53.071Z,35.35
2023-01-21T09:02:22.716Z,25.83
2023-01-21T09:04:52.363Z,29.42
2023-01-21T09:07:22.093Z,34.13
2023-01-21T09:09:51.564Z,36.63
2023-01-21T09:12:21.137Z,28.73
2023-01-21T09:14:50.768Z,30.75
2023-01-21T09:17:20.314Z,28.85
2023-01-21T09:19:50.440Z,33.47
2023-01-21T09:22:20.207Z,39.45
2023-01-21T09:24:49.601Z,26.08
2023-01-21T09:27:19.286Z,88.82
2023-01-21T09:29:48.627Z,63.42
2023-01-21T09:32:18.005Z,32.40
2023-01-21T09:34:47.685Z,35.30
2023-01-21T09:37:17.064Z,31.30
2023-01-21T09:39:49.283Z,28.17
2023-01-21T09:42:23.386Z,35.92
2023-01-21T09:44:55.989Z,25.13
2023-01-21T09:47:34.932Z,25.38
2023-01-21T09:50:09.917Z,30.88
2023-01-21T09:52:44.144Z,23.10
2023-01-21T09:55:25.642Z,27.65
2023-01-21T09:58:35.432Z,31.25
2023-01-21T10:01:20.683Z,27.60
2023-01-21T10:03:55.369Z,34.50
2023-01-21T10:07:15.408Z,39.65
2023-01-21T10:10:05.685Z,29.23
2023-01-21T10:12:55.683Z,35.28
2023-01-21T10:15:51.661Z,30.02
2023-01-21T10:18:30.710Z,31.77
2023-01-21T10:21:19.795Z,27.40
2023-01-21T10:24:02.502Z,35.10
2023-01-21T10:26:35.614Z,187.02
2023-01-21T10:29:06.432Z,35.15
2023-01-21T10:31:44.275Z,36.58
2023-01-21T10:34:16.367Z,36.35
2023-01-21T10:36:52.666Z,47.00
2023-01-21T10:39:28.490Z,43.30
2023-01-21T10:42:06.722Z,41.40
2023-01-21T10:44:48.509Z,47.28
2023-01-21T10:47:44.244Z,39.92
2023-01-21T10:50:19.285Z,39.63
2023-01-21T10:53:15.232Z,37.92
2023-01-21T10:56:02.039Z,37.10
2023-01-21T10:58:35.453Z,41.97
2023-01-21T11:01:09.835Z,33.60
2023-01-21T11:03:43.999Z,33.72
2023-01-21T11:06:16.799Z,38.17
2023-01-21T11:11:27.753Z,31.58
2023-01-21T11:13:58.284Z,32.00
2023-01-21T11:16:44.385Z,41.25
2023-01-21T11:19:17.135Z,30.40
2023-01-21T11:22:07.248Z,40.15
2023-01-21T11:24:52.481Z,49.83
2023-01-21T11:27:40.620Z,45.65
2023-01-21T11:30:55.217Z,57.00
2023-01-21T11:33:28.583Z,38.33
2023-01-21T11:35:59.454Z,51.58
2023-01-21T11:38:31.859Z,58.65
2023-01-21T11:41:08.848Z,57.92
2023-01-21T11:43:47.652Z,61.30
2023-01-21T11:46:36.815Z,57.90
2023-01-21T11:49:09.391Z,61.47
2023-01-21T11:54:26.011Z,65.60
2023-01-21T11:57:01.842Z,49.58
2023-01-21T11:59:45.423Z,60.15
2023-01-21T12:02:41.428Z,49.47
2023-01-21T12:05:25.141Z,61.17
2023-01-21T12:07:54.763Z,56.05
2023-01-21T12:10:35.052Z,47.47
2023-01-21T12:13:37.753Z,44.85
2023-01-21T12:16:25.446Z,61.25
2023-01-21T12:19:22.629Z,64.25
2023-01-21T12:22:30.941Z,62.08
2023-01-21T12:25:39.372Z,76.00
2023-01-21T12:28:52.349Z,84.40
2023-01-21T12:31:30.380Z,84.32
2023-01-21T12:34:14.042Z,78.07
2023-01-21T12:37:08.536Z,62.13
2023-01-21T12:39:39.800Z,80.05
2023-01-21T12:42:21.978Z,81.55
2023-01-21T12:45:16.559Z,84.65
2023-01-21T12:47:58.009Z,79.35
2023-01-21T12:50:49.624Z,86.20
2023-01-21T12:53:43.351Z,88.80
2023-01-21T12:56:35.088Z,101.13
2023-01-21T12:59:18.279Z,110.28
2023-01-21T13:02:19.630Z,103.72
2023-01-21T13:05:05.636Z,135.45
2023-01-21T13:07:53.417Z,117.22
2023-01-21T13:10:33.772Z,141.82
2023-01-21T13:13:24.383Z,118.35
2023-01-21T13:15:59.017Z,99.57
2023-01-21T13:18:37.842Z,94.15
2023-01-21T13:21:19.516Z,95.47
2023-01-21T13:24:16.945Z,98.63
2023-01-21T13:26:55.439Z,117.97
2023-01-21T13:29:53.327Z,97.53
2023-01-21T13:33:00.988Z,135.95
2023-01-21T13:35:36.226Z,111.57
2023-01-21T13:38:22.977Z,120.43
2023-01-21T13:41:33.548Z,132.70
2023-01-21T13:44:14.434Z,107.90
2023-01-21T13:46:47.132Z,92.40
2023-01-21T13:52:13.351Z,95.65
2023-01-21T13:55:01.930Z,92.32
2023-01-21T13:58:20.523Z,89.90
2023-01-21T14:01:04.510Z,75.50
2023-01-21T14:03:48.874Z,81.85
2023-01-21T14:06:30.878Z,78.95
2023-01-21T14:09:13.681Z,112.70
2023-01-21T14:12:09.042Z,104.60
2023-01-21T14:14:57.117Z,108.57
2023-01-21T14:18:04.591Z,112.03
2023-01-21T14:21:05.943Z,105.68
2023-01-21T14:23:44.741Z,111.47
2023-01-21T14:26:32.342Z,103.95
2023-01-21T14:29:20.052Z,110.55
2023-01-21T14:32:14.010Z,114.82
2023-01-21T14:35:14.983Z,114.45
2023-01-21T14:38:25.636Z,105.38
2023-01-21T14:41:10.628Z,109.70
2023-01-21T14:43:41.563Z,106.57
2023-01-21T14:46:35.336Z,112.45
2023-01-21T14:49:10.413Z,125.40
2023-01-21T14:51:49.440Z,123.13
2023-01-21T14:54:29.221Z,123.57
2023-01-21T14:57:17.303Z,108.25
2023-01-21T14:59:48.943Z,133.68
2023-01-21T15:02:37.116Z,118.78
2023-01-21T15:05:22.703Z,121.00
2023-01-21T15:08:20.012Z,156.88
2023-01-21T15:11:09.301Z,173.57
2023-01-21T15:13:41.436Z,188.68
2023-01-21T15:16:34.802Z,217.60
2023-01-21T15:19:10.383Z,161.95
2023-01-21T15:22:20.359Z,125.00
2023-01-21T15:25:04.219Z,147.82
2023-01-21T15:27:34.319Z,173.23
2023-01-21T15:30:07.016Z,164.82
2023-01-21T15:35:47.342Z,160.77
2023-01-21T15:38:18.541Z,129.27
2023-01-21T15:40:56.516Z,147.38
2023-01-21T15:43:58.194Z,134.05
2023-01-21T15:46:43.002Z,142.50
2023-01-21T15:49:37.503Z,142.98
2023-01-21T15:52:49.208Z,146.65
2023-01-21T15:55:47.745Z,147.98
2023-01-21T15:58:42.925Z,139.60
2023-01-21T16:01:35.741Z,153.52
2023-01-21T16:04:31.955Z,165.98
2023-01-21T16:07:20.359Z,154.90
2023-01-21T16:10:34.298Z,151.15
2023-01-21T16:13:51.623Z,144.55
2023-01-21T16:16:46.155Z,145.07
2023-01-21T16:19:29.209Z,152.82
2023-01-21T16:22:03.070Z,157.07
2023-01-21T16:24:39.597Z,160.70
2023-01-21T16:27:19.798Z,160.57
2023-01-21T16:29:49.975Z,178.90
2023-01-21T16:32:21.615Z,187.00
2023-01-21T16:34:52.853Z,189.23
2023-01-21T16:37:27.777Z,205.45
2023-01-21T16:40:12.199Z,210.20
2023-01-21T16:42:43.220Z,187.02
2023-01-21T16:45:23.931Z,189.65
2023-01-21T16:47:59.965Z,203.30
2023-01-21T16:50:32.189Z,190.38
2023-01-21T16:53:09.200Z,191.23
2023-01-21T16:55:49.656Z,196.77
2023-01-21T16:58:33.565Z,246.90
2023-01-21T17:01:17.350Z,259.80
2023-01-21T17:03:51.067Z,256.42
2023-01-21T17:06:26.782Z,272.20
2023-01-21T17:09:06.368Z,260.35
2023-01-21T17:11:38.299Z,250.50
2023-01-21T17:14:12.266Z,298.73
2023-01-21T17:16:43.898Z,248.25
2023-01-21T17:19:44.527Z,232.40
2023-01-21T17:22:20.722Z,223.15
2023-01-21T17:25:27.184Z,239.70
2023-01-21T17:27:58.150Z,208.98
2023-01-21T17:30:32.972Z,190.02
2023-01-21T17:33:05.021Z,190.82
2023-01-21T17:35:35.544Z,203.85
2023-01-21T17:38:07.571Z,195.23
2023-01-21T17:41:02.227Z,194.27
2023-01-21T17:43:34.779Z,186.90
2023-01-21T17:46:05.482Z,188.75
2023-01-21T17:48:46.733Z,206.30
2023-01-21T17:51:25.192Z,216.10
2023-01-21T17:53:57.858Z,199.60
2023-01-21T17:56:51.448Z,216.27
2023-01-21T17:59:38.902Z,205.27
2023-01-21T18:02:11.789Z,220.07
2023-01-21T18:04:43.055Z,231.65
2023-01-21T18:07:28.752Z,238.55
2023-01-21T18:10:04.052Z,236.85
2023-01-21T18:12:33.781Z,274.10
2023-01-21T18:15:03.979Z,249.00
2023-01-21T18:17:35.118Z,260.48
2023-01-21T18:20:05.558Z,266.73
2023-01-21T18:22:37.163Z,263.02
2023-01-21T18:25:08.341Z,252.60
2023-01-21T18:27:38.207Z,265.17
2023-01-21T18:30:20.106Z,249.18
2023-01-21T18:32:51.024Z,239.20
2023-01-21T18:35:28.808Z,256.63
2023-01-21T18:37:59.022Z,254.02
2023-01-21T18:40:29.067Z,259.08
2023-01-21T18:42:59.379Z,245.32
2023-01-21T18:45:30.294Z,245.13
2023-01-21T18:48:00.113Z,247.18
2023-01-21T18:50:31.441Z,247.38
2023-01-21T18:53:01.216Z,244.05
2023-01-21T18:55:31.082Z,236.65
2023-01-21T18:58:00.786Z,259.67
2023-01-21T19:00:32.628Z,265.50
2023-01-21T19:03:03.061Z,239.52
2023-01-21T19:05:37.498Z,245.52
2023-01-21T19:08:15.901Z,263.00
2023-01-21T19:10:45.774Z,252.57
2023-01-21T19:13:18.017Z,266.40
2023-01-21T19:15:50.037Z,257.33
2023-01-21T19:18:19.738Z,257.20
2023-01-21T19:20:49.302Z,275.42
2023-01-21T19:23:19.871Z,258.95
2023-01-21T19:25:58.164Z,248.88
2023-01-21T19:28:27.926Z,259.13
2023-01-21T19:30:59.558Z,267.48
2023-01-21T19:33:29.321Z,264.67
2023-01-21T19:36:06.476Z,254.05
2023-01-21T19:38:36.225Z,254.82
2023-01-21T19:41:06.594Z,253.23
2023-01-21T19:43:37.856Z,250.68
2023-01-21T19:46:13.127Z,245.20
2023-01-21T19:48:43.143Z,260.55
2023-01-21T19:51:12.794Z,251.65
2023-01-21T19:53:42.710Z,226.23
2023-01-21T19:56:18.625Z,251.88
2023-01-21T19:58:49.712Z,237.75
2023-01-21T20:01:19.306Z,244.80
2023-01-21T20:03:59.779Z,267.08
2023-01-21T20:06:35.238Z,259.00
2023-01-21T20:09:06.168Z,254.88
2023-01-21T20:11:36.093Z,251.85
2023-01-21T20:14:05.841Z,270.08
2023-01-21T20:16:35.857Z,268.17
2023-01-21T20:19:07.689Z,273.23
2023-01-21T20:21:54.703Z,325.77
2023-01-21T20:24:31.394Z,282.17
2023-01-21T20:27:01.686Z,288.40
2023-01-21T20:29:31.142Z,283.42
2023-01-21T20:32:00.866Z,305.73
2023-01-21T20:34:32.684Z,290.95
2023-01-21T20:37:02.621Z,310.73
2023-01-21T20:39:32.264Z,316.63
2023-01-21T20:42:01.839Z,319.23
2023-01-21T20:44:31.510Z,297.27
2023-01-21T20:47:02.579Z,315.15
2023-01-21T20:49:32.279Z,285.77
2023-01-21T20:52:01.886Z,287.25
2023-01-21T20:54:31.498Z,324.85
2023-01-21T20:57:01.203Z,319.60
2023-01-21T20:59:30.615Z,307.60
2023-01-21T21:02:00.403Z,328.90
2023-01-21T21:04:31.188Z,316.95
2023-01-21T21:07:00.857Z,299.52
2023-01-21T21:09:30.434Z,330.38
2023-01-21T21:12:02.886Z,306.60
2023-01-21T21:14:32.479Z,291.80
2023-01-21T21:17:01.898Z,288.23
2023-01-21T21:19:31.556Z,286.60
2023-01-21T21:22:01.117Z,280.73
2023-01-21T21:24:31.166Z,274.75
2023-01-21T21:27:01.581Z,260.45
2023-01-21T21:29:31.707Z,252.02
2023-01-21T21:32:03.415Z,261.15
2023-01-21T21:34:33.228Z,244.70
2023-01-21T21:37:03.003Z,256.08
2023-01-21T21:39:34.278Z,278.52
2023-01-21T21:42:22.304Z,290.52
2023-01-21T21:44:51.841Z,283.33
2023-01-21T21:47:39.389Z,266.63
2023-01-21T21:50:09.502Z,298.02
2023-01-21T21:52:39.116Z,284.15
2023-01-21T21:55:11.632Z,283.88
2023-01-21T21:57:42.881Z,289.75
2023-01-21T22:00:13.904Z,299.08
2023-01-21T22:02:43.475Z,303.75
2023-01-21T22:05:13.720Z,288.48
2023-01-21T22:07:43.440Z,305.40
2023-01-21T22:10:13.576Z,317.08
2023-01-21T22:12:43.410Z,314.42
2023-01-21T22:15:13.253Z,342.52
2023-01-21T22:17:42.704Z,329.35
2023-01-21T22:20:13.186Z,372.40
2023-01-21T22:22:42.990Z,351.58
2023-01-21T22:25:12.834Z,339.80
2023-01-21T22:27:42.620Z,365.85
2023-01-21T22:30:13.438Z,366.20
2023-01-21T22:32:43.064Z,358.88
2023-01-21T22:35:12.583Z,349.52
2023-01-21T22:37:42.047Z,368.92
2023-01-21T22:40:12.305Z,378.52
2023-01-21T22:42:41.885Z,312.95
2023-01-21T22:45:11.693Z,320.77
2023-01-21T22:47:41.109Z,305.58
2023-01-21T22:50:11.480Z,293.42
2023-01-21T22:52:42.777Z,319.90
2023-01-21T22:55:12.534Z,344.92
2023-01-21T22:57:42.362Z,363.55
2023-01-21T23:00:16.869Z,354.00
2023-01-21T23:02:46.274Z,314.63
2023-01-21T23:05:15.753Z,319.65
2023-01-21T23:07:45.524Z,295.65
2023-01-21T23:10:14.905Z,291.17
2023-01-21T23:12:44.742Z,301.60
2023-01-21T23:15:14.234Z,284.05
2023-01-21T23:17:43.600Z,247.13
2023-01-21T23:20:13.565Z,251.60
2023-01-21T23:22:43.123Z,228.75
2023-01-21T23:25:15.447Z,230.32
2023-01-21T23:27:45.043Z,187.43
2023-01-21T23:30:15.717Z,193.48
2023-01-21T23:32:45.399Z,190.15
2023-01-21T23:35:15.107Z,196.80
2023-01-21T23:37:44.952Z,192.15
2023-01-21T23:40:14.749Z,175.00
2023-01-21T23:42:44.453Z,177.27
2023-01-21T23:45:13.988Z,173.38
2023-01-21T23:47:43.648Z,158.07
2023-01-21T23:50:15.580Z,178.75
2023-01-21T23:52:45.235Z,177.10
2023-01-21T23:55:15.915Z,161.52
2023-01-21T23:57:45.605Z,173.30
